createdAt,value
2023-04-12T04:15:07.983Z,84.49
2023-04-12T04:16:07.991Z,84.69
2023-04-12T04:17:07.949Z,84.69
2023-04-12T04:18:07.943Z,84.69
2023-04-12T04:19:07.925Z,84.80
2023-04-12T04:20:07.925Z,84.80
2023-04-12T04:21:07.926Z,85.00
2023-04-12T04:22:07.890Z,85.21
2023-04-12T04:23:07.881Z,85.21
2023-04-12T04:24:07.858Z,85.62
2023-04-12T04:25:07.853Z,85.46
2023-04-12T04:26:07.839Z,85.86
2023-04-12T04:27:07.828Z,85.86
2023-04-12T04:28:07.824Z,85.97
2023-04-12T04:29:07.797Z,86.27
2023-04-12T04:30:07.783Z,86.27
2023-04-12T04:31:07.781Z,86.58
2023-04-12T04:32:07.835Z,86.79
2023-04-12T04:33:07.772Z,86.17
2023-04-12T04:34:07.732Z,85.86
2023-04-12T04:35:07.726Z,85.97
2023-04-12T04:36:07.713Z,86.07
2023-04-12T04:37:07.708Z,86.48
2023-04-12T04:38:07.843Z,86.79
2023-04-12T04:39:07.678Z,86.17
2023-04-12T04:40:07.678Z,86.17
2023-04-12T04:41:07.653Z,86.48
2023-04-12T04:42:07.635Z,86.58
2023-04-12T04:43:08.300Z,86.99
2023-04-12T04:44:07.609Z,86.99
2023-04-12T04:45:07.614Z,86.89
2023-04-12T04:46:07.617Z,87.10
2023-04-12T04:47:07.609Z,87.40
2023-04-12T04:48:07.643Z,86.99
2023-04-12T04:49:07.543Z,87.20
2023-04-12T04:50:07.540Z,87.61
2023-04-12T04:51:07.520Z,87.40
2023-04-12T04:52:07.509Z,87.82
2023-04-12T04:53:07.504Z,88.12
2023-04-12T04:54:07.497Z,88.57
2023-04-12T04:55:09.150Z,88.37
2023-04-12T04:56:07.455Z,88.47
2023-04-12T04:57:07.450Z,89.09
2023-04-12T04:58:07.555Z,88.78
2023-04-12T04:59:07.425Z,88.57
2023-04-12T05:00:07.407Z,88.78
2023-04-12T05:01:07.472Z,89.19
2023-04-12T05:02:07.411Z,89.40
2023-04-12T05:03:07.520Z,89.09
2023-04-12T05:04:07.448Z,89.09
2023-04-12T05:05:07.346Z,88.89
2023-04-12T05:06:07.320Z,89.09
2023-04-12T05:07:07.309Z,88.89
2023-04-12T05:08:07.321Z,88.98
2023-04-12T05:09:07.284Z,88.98
2023-04-12T05:10:07.274Z,89.19
2023-04-12T05:11:07.261Z,88.78
2023-04-12T05:12:07.246Z,88.98
2023-04-12T05:13:07.255Z,89.40
2023-04-12T05:14:07.212Z,89.19
2023-04-12T05:15:11.731Z,89.09
2023-04-12T05:16:07.201Z,88.57
2023-04-12T05:17:07.174Z,88.89
2023-04-12T05:18:07.210Z,89.19
2023-04-12T05:19:07.158Z,89.40
2023-04-12T05:20:07.149Z,89.60
2023-04-12T05:21:07.128Z,89.60
2023-04-12T05:22:07.109Z,89.40
2023-04-12T05:23:07.112Z,89.91
2023-04-12T05:24:07.087Z,90.01
2023-04-12T05:25:07.078Z,90.22
2023-04-12T05:26:07.060Z,90.32
2023-04-12T05:27:07.049Z,90.32
2023-04-12T05:28:07.050Z,90.12
2023-04-12T05:29:07.054Z,90.12
2023-04-12T05:30:07.006Z,90.12
2023-04-12T05:31:07.042Z,90.01
2023-04-12T05:32:06.993Z,89.81
2023-04-12T05:33:06.993Z,89.70
2023-04-12T05:34:06.961Z,89.91
2023-04-12T05:35:06.951Z,89.91
2023-04-12T05:36:07.019Z,90.22
2023-04-12T05:37:06.924Z,90.32
2023-04-12T05:38:06.925Z,90.42
2023-04-12T05:39:06.897Z,90.73
2023-04-12T05:40:06.879Z,90.73
2023-04-12T05:41:06.870Z,91.45
2023-04-12T05:42:06.858Z,91.14
2023-04-12T05:43:06.864Z,91.76
2023-04-12T05:44:06.831Z,91.76
2023-04-12T05:45:06.834Z,92.07
2023-04-12T05:46:06.849Z,92.58
2023-04-12T05:47:06.800Z,92.89
2023-04-12T05:48:06.833Z,92.93
2023-04-12T05:49:06.764Z,93.24
2023-04-12T05:50:07.076Z,93.14
2023-04-12T05:51:06.757Z,93.24
2023-04-12T05:52:06.725Z,93.14
2023-04-12T05:53:06.738Z,93.24
2023-04-12T05:54:06.699Z,93.55
2023-04-12T05:55:06.707Z,93.86
2023-04-12T05:56:06.704Z,94.07
2023-04-12T05:57:06.677Z,94.27
2023-04-12T05:58:06.666Z,94.48
2023-04-12T05:59:06.654Z,94.68
2023-04-12T06:00:06.624Z,94.99
2023-04-12T06:01:06.617Z,94.99
2023-04-12T06:02:06.623Z,95.40
2023-04-12T06:03:06.673Z,95.71
2023-04-12T06:04:06.716Z,95.96
2023-04-12T06:05:06.606Z,96.17
2023-04-12T06:06:06.555Z,96.47
2023-04-12T06:07:06.538Z,96.58
2023-04-12T06:08:06.557Z,96.78
2023-04-12T06:09:06.523Z,97.09
2023-04-12T06:10:06.500Z,96.99
2023-04-12T06:11:06.501Z,97.30
2023-04-12T06:12:06.488Z,97.40
2023-04-12T06:13:06.470Z,97.19
2023-04-12T06:14:06.484Z,97.30
2023-04-12T06:15:06.451Z,97.71
2023-04-12T06:16:06.466Z,98.02
2023-04-12T06:17:06.429Z,97.91
2023-04-12T06:18:06.453Z,98.02
2023-04-12T06:19:06.388Z,98.02
2023-04-12T06:20:06.373Z,98.33
2023-04-12T06:21:06.366Z,98.33
2023-04-12T06:22:06.349Z,98.43
2023-04-12T06:23:06.340Z,98.43
2023-04-12T06:24:06.326Z,98.43
2023-04-12T06:25:06.304Z,98.53
2023-04-12T06:26:06.329Z,98.12
2023-04-12T06:27:06.282Z,98.12
2023-04-12T06:28:06.302Z,98.12
2023-04-12T06:29:06.263Z,98.12
2023-04-12T06:30:06.245Z,98.22
2023-04-12T06:31:06.243Z,98.12
2023-04-12T06:32:06.212Z,98.33
2023-04-12T06:33:06.249Z,98.74
2023-04-12T06:34:06.192Z,98.84
2023-04-12T06:35:06.171Z,98.94
2023-04-12T06:36:06.174Z,98.74
2023-04-12T06:37:06.150Z,98.84
2023-04-12T06:38:06.159Z,98.94
2023-04-12T06:39:06.114Z,99.10
2023-04-12T06:40:06.105Z,99.05
2023-04-12T06:41:06.093Z,98.84
2023-04-12T06:42:06.078Z,98.84
2023-04-12T06:43:06.078Z,99.10
2023-04-12T06:44:06.089Z,99.21
2023-04-12T06:45:06.036Z,99.15
2023-04-12T06:46:06.028Z,98.94
2023-04-12T06:47:06.091Z,99.00
2023-04-12T06:48:06.063Z,99.00
2023-04-12T06:49:05.992Z,99.00
2023-04-12T06:50:05.980Z,98.69
2023-04-12T06:51:05.955Z,98.59
2023-04-12T06:52:05.961Z,98.79
2023-04-12T06:53:05.943Z,98.90
2023-04-12T06:54:06.228Z,99.00
2023-04-12T06:55:05.907Z,99.21
2023-04-12T06:56:05.899Z,99.00
2023-04-12T06:57:05.879Z,99.10
2023-04-12T06:58:05.885Z,99.21
2023-04-12T06:59:05.856Z,99.21
2023-04-12T07:00:05.842Z,99.31
2023-04-12T07:01:05.857Z,99.05
2023-04-12T07:02:05.865Z,98.59
2023-04-12T07:03:05.905Z,98.79
2023-04-12T07:04:05.837Z,98.38
2023-04-12T07:05:05.802Z,98.28
2023-04-12T07:06:17.689Z,98.79
2023-04-12T07:07:06.758Z,98.96
2023-04-12T07:08:05.762Z,98.96
2023-04-12T07:09:05.735Z,98.28
2023-04-12T07:10:05.729Z,98.33
2023-04-12T07:11:18.105Z,98.44
2023-04-12T07:12:06.709Z,98.54
2023-04-12T07:13:05.692Z,98.75
2023-04-12T07:14:05.671Z,98.85
2023-04-12T07:15:05.668Z,98.65
2023-04-12T07:16:05.666Z,98.75
2023-04-12T07:17:05.640Z,98.54
2023-04-12T07:18:05.720Z,98.24
2023-04-12T07:19:05.625Z,97.62
2023-04-12T07:20:05.595Z,97.92
2023-04-12T07:21:05.591Z,98.33
2023-04-12T07:22:05.585Z,98.33
2023-04-12T07:23:05.576Z,98.13
2023-04-12T07:24:05.538Z,98.33
2023-04-12T07:25:05.530Z,98.44
2023-04-12T07:26:05.556Z,98.44
2023-04-12T07:27:05.514Z,98.54
2023-04-12T07:28:06.487Z,98.80
2023-04-12T07:29:05.485Z,98.54
2023-04-12T07:30:05.466Z,98.65
2023-04-12T07:31:05.461Z,98.96
2023-04-12T07:32:05.432Z,98.96
2023-04-12T07:33:16.343Z,99.16
2023-04-12T07:34:06.510Z,99.37
2023-04-12T07:35:05.406Z,99.37
2023-04-12T07:36:05.416Z,99.37
2023-04-12T07:37:05.376Z,99.57
2023-04-12T07:38:05.369Z,99.47
2023-04-12T07:39:05.364Z,99.37
2023-04-12T07:40:05.398Z,99.47
2023-04-12T07:41:05.332Z,99.63
2023-04-12T07:42:05.319Z,99.63
2023-04-12T07:43:05.307Z,99.63
2023-04-12T07:44:05.276Z,99.57
2023-04-12T07:45:05.272Z,99.67
2023-04-12T07:46:05.268Z,99.98
2023-04-12T07:47:05.247Z,99.99
2023-04-12T07:48:05.270Z,99.77
2023-04-12T07:49:05.223Z,99.73
2023-04-12T07:50:05.246Z,99.73
2023-04-12T07:51:05.191Z,99.77
2023-04-12T07:52:05.176Z,99.63
2023-04-12T07:53:05.180Z,99.83
2023-04-12T07:54:05.152Z,99.73
2023-04-12T07:55:05.155Z,99.73
2023-04-12T07:56:05.255Z,99.73
2023-04-12T07:57:05.116Z,99.63
2023-04-12T07:58:05.113Z,99.73
2023-04-12T07:59:05.101Z,99.99
2023-04-12T08:00:05.078Z,99.93
2023-04-12T08:01:05.070Z,99.99
2023-04-12T08:02:05.110Z,99.99
2023-04-12T08:03:05.214Z,99.73
2023-04-12T08:04:05.324Z,99.83
2023-04-12T08:05:05.010Z,99.83
2023-04-12T08:06:05.041Z,99.99
2023-04-12T08:07:04.986Z,99.99
2023-04-12T08:08:04.984Z,99.99
2023-04-12T08:09:04.961Z,99.99
2023-04-12T08:10:04.944Z,99.99
2023-04-12T08:11:04.941Z,99.58
2023-04-12T08:12:04.943Z,99.74
2023-04-12T08:13:04.919Z,99.95
2023-04-12T08:14:04.892Z,99.84
2023-04-12T08:15:04.883Z,99.74
2023-04-12T08:16:04.900Z,99.33
2023-04-12T08:17:04.858Z,99.54
2023-04-12T08:18:04.888Z,99.33
2023-04-12T08:19:04.832Z,99.33
2023-04-12T08:20:04.822Z,99.59
2023-04-12T08:21:04.814Z,99.54
2023-04-12T08:22:04.787Z,99.99
2023-04-12T08:23:04.793Z,99.74
2023-04-12T08:24:04.762Z,99.63
2023-04-12T08:25:04.755Z,99.74
2023-04-12T08:26:04.730Z,99.63
2023-04-12T08:27:04.725Z,99.74
2023-04-12T08:28:04.721Z,99.99
2023-04-12T08:29:04.705Z,99.74
2023-04-12T08:30:04.688Z,99.43
2023-04-12T08:31:04.696Z,99.54
2023-04-12T08:32:04.659Z,99.54
2023-04-12T08:33:04.763Z,99.43
2023-04-12T08:34:04.630Z,99.99
2023-04-12T08:35:04.656Z,99.54
2023-04-12T08:36:04.671Z,99.99
2023-04-12T08:37:04.596Z,99.99
2023-04-12T08:38:04.592Z,99.99
2023-04-12T08:39:04.571Z,99.99
2023-04-12T08:40:04.579Z,99.99
2023-04-12T08:41:04.554Z,99.99
2023-04-12T08:42:04.527Z,99.99
2023-04-12T08:43:04.558Z,99.99
2023-04-12T08:44:04.518Z,99.99
2023-04-12T08:45:04.496Z,99.99
2023-04-12T08:46:04.497Z,99.99
2023-04-12T08:47:04.526Z,99.99
2023-04-12T08:48:04.509Z,99.99
2023-04-12T08:49:04.462Z,99.99
2023-04-12T08:50:04.439Z,99.99
2023-04-12T08:51:04.471Z,99.99
2023-04-12T08:52:04.399Z,99.99
2023-04-12T08:53:04.412Z,99.99
2023-04-12T08:54:04.471Z,99.99
2023-04-12T08:55:04.374Z,99.99
2023-04-12T08:56:04.344Z,99.99
2023-04-12T08:57:04.346Z,99.99
2023-04-12T08:58:04.360Z,99.99
2023-04-12T08:59:04.329Z,99.99
2023-04-12T09:00:04.399Z,99.99
2023-04-12T09:01:04.288Z,99.99
2023-04-12T09:02:04.370Z,99.99
2023-04-12T09:03:04.574Z,99.99
2023-04-12T09:04:04.788Z,99.99
2023-04-12T09:05:04.519Z,99.99
2023-04-12T09:06:04.245Z,99.99
2023-04-12T09:07:04.216Z,99.99
2023-04-12T09:08:04.201Z,99.99
2023-04-12T09:09:05.315Z,99.99
2023-04-12T09:10:04.182Z,99.99
2023-04-12T09:11:04.158Z,99.99
2023-04-12T09:12:04.151Z,99.99
2023-04-12T09:13:04.155Z,99.99
2023-04-12T09:14:04.125Z,99.99
2023-04-12T09:15:04.125Z,99.99
2023-04-12T09:16:04.102Z,99.99
2023-04-12T09:17:04.189Z,99.99
2023-04-12T09:18:04.129Z,99.99
2023-04-12T09:19:04.056Z,99.99
2023-04-12T09:20:04.041Z,99.99
2023-04-12T09:21:04.160Z,99.99
2023-04-12T09:22:04.013Z,99.99
2023-04-12T09:23:04.033Z,99.99
2023-04-12T09:24:03.989Z,99.99
2023-04-12T09:25:03.975Z,99.99
2023-04-12T09:26:03.950Z,99.99
2023-04-12T09:27:03.984Z,99.99
2023-04-12T09:28:03.945Z,99.99
2023-04-12T09:29:03.922Z,99.99
2023-04-12T09:30:03.903Z,99.99
2023-04-12T09:31:04.058Z,99.99
2023-04-12T09:32:04.043Z,99.99
2023-04-12T09:33:03.917Z,99.99
2023-04-12T09:34:03.865Z,99.99
2023-04-12T09:35:03.857Z,99.99
2023-04-12T09:36:03.899Z,99.99
2023-04-12T09:37:03.821Z,99.99
2023-04-12T09:38:03.814Z,99.99
2023-04-12T09:39:03.806Z,99.99
2023-04-12T09:40:03.790Z,99.99
2023-04-12T09:41:03.771Z,99.99
2023-04-12T09:42:03.788Z,99.99
2023-04-12T09:43:03.749Z,99.99
2023-04-12T09:44:03.761Z,99.99
2023-04-12T09:45:03.717Z,99.99
2023-04-12T09:46:03.740Z,99.99
2023-04-12T09:47:03.709Z,99.99
2023-04-12T09:48:03.717Z,99.99
2023-04-12T09:49:03.667Z,99.99
2023-04-12T09:50:03.647Z,99.99
2023-04-12T09:51:03.642Z,99.99
2023-04-12T09:52:03.622Z,99.99
2023-04-12T09:53:03.635Z,99.99
2023-04-12T09:54:03.593Z,99.99
2023-04-12T09:55:03.594Z,99.99
2023-04-12T09:56:03.588Z,99.99
2023-04-12T09:57:03.557Z,99.99
2023-04-12T09:58:03.557Z,99.99
2023-04-12T09:59:03.556Z,99.99
2023-04-12T10:00:03.510Z,99.99
2023-04-12T10:01:03.556Z,99.99
2023-04-12T10:02:03.567Z,99.99
2023-04-12T10:03:03.831Z,99.99
2023-04-12T10:04:03.868Z,99.99
2023-04-12T10:05:03.583Z,99.99
2023-04-12T10:06:03.436Z,99.99
2023-04-12T10:07:03.426Z,99.99
2023-04-12T10:08:03.420Z,99.99
2023-04-12T10:09:03.394Z,99.99
2023-04-12T10:10:03.384Z,99.99
2023-04-12T10:11:03.385Z,99.99
2023-04-12T10:12:03.388Z,99.99
2023-04-12T10:13:03.373Z,99.99
2023-04-12T10:14:03.372Z,99.99
2023-04-12T10:15:03.323Z,99.99
2023-04-12T10:16:03.340Z,99.99
2023-04-12T10:17:03.287Z,99.99
2023-04-12T10:18:03.305Z,99.99
2023-04-12T10:19:03.265Z,99.99
2023-04-12T10:20:03.266Z,99.99
2023-04-12T10:21:03.237Z,99.99
2023-04-12T10:22:03.225Z,99.99
2023-04-12T10:23:03.241Z,99.99
2023-04-12T10:24:03.211Z,99.99
2023-04-12T10:25:03.198Z,99.99
2023-04-12T10:26:03.183Z,99.99
2023-04-12T10:27:03.194Z,99.99
2023-04-12T10:28:03.163Z,99.99
2023-04-12T10:29:03.170Z,99.99
2023-04-12T10:30:03.135Z,99.99
2023-04-12T10:31:03.172Z,99.99
2023-04-12T10:32:03.153Z,99.99
2023-04-12T10:33:03.179Z,99.99
2023-04-12T10:34:03.073Z,99.99
2023-04-12T10:35:03.061Z,99.99
2023-04-12T10:36:03.142Z,99.99
2023-04-12T10:37:03.037Z,99.99
2023-04-12T10:38:03.033Z,99.99
2023-04-12T10:39:03.025Z,99.99
2023-04-12T10:40:03.034Z,99.82
2023-04-12T10:41:02.983Z,99.99
2023-04-12T10:42:02.967Z,99.57
2023-04-12T10:43:02.971Z,99.37
2023-04-12T10:44:02.949Z,99.27
2023-04-12T10:45:02.944Z,99.47
2023-04-12T10:46:02.922Z,99.11
2023-04-12T10:47:02.990Z,99.11
2023-04-12T10:48:02.989Z,99.43
2023-04-12T10:49:02.928Z,99.02
2023-04-12T10:50:02.873Z,98.50
2023-04-12T10:51:02.884Z,98.71
2023-04-12T10:52:02.892Z,98.35
2023-04-12T10:53:02.842Z,98.75
2023-04-12T10:54:02.815Z,98.71
2023-04-12T10:55:02.804Z,98.91
2023-04-12T10:56:02.821Z,99.18
2023-04-12T10:57:02.785Z,98.81
2023-04-12T10:58:02.792Z,98.56
2023-04-12T10:59:03.091Z,98.97
2023-04-12T11:00:02.771Z,98.11
2023-04-12T11:01:02.829Z,97.29
2023-04-12T11:02:03.086Z,96.58
2023-04-12T11:03:02.827Z,96.17
2023-04-12T11:04:03.146Z,95.35
2023-04-12T11:05:02.700Z,95.04
2023-04-12T11:06:16.247Z,94.94
2023-04-12T11:07:03.647Z,94.94
2023-04-12T11:08:02.676Z,94.79
2023-04-12T11:09:02.641Z,95.12
2023-04-12T11:10:02.630Z,92.77
2023-04-12T11:11:02.592Z,92.97
2023-04-12T11:12:02.627Z,93.18
2023-04-12T11:13:02.616Z,92.46
2023-04-12T11:14:02.643Z,92.77
2023-04-12T11:15:02.558Z,92.67
2023-04-12T11:16:02.622Z,91.59
2023-04-12T11:17:02.621Z,91.33
2023-04-12T11:18:02.518Z,92.24
2023-04-12T11:19:02.484Z,91.88
2023-04-12T11:20:02.518Z,92.29
2023-04-12T11:21:02.467Z,92.74
2023-04-12T11:22:02.483Z,93.45
2023-04-12T11:23:02.458Z,93.76
2023-04-12T11:24:02.423Z,93.66
2023-04-12T11:25:02.444Z,93.45
2023-04-12T11:26:02.430Z,93.55
2023-04-12T11:27:02.384Z,93.45
2023-04-12T11:28:04.075Z,93.62
2023-04-12T11:29:02.352Z,93.21
2023-04-12T11:30:02.402Z,92.74
2023-04-12T11:31:02.334Z,93.51
2023-04-12T11:32:02.344Z,93.82
2023-04-12T11:33:02.421Z,93.82
2023-04-12T11:34:02.277Z,93.51
2023-04-12T11:35:02.304Z,93.45
2023-04-12T11:36:02.292Z,94.17
2023-04-12T11:37:02.254Z,93.96
2023-04-12T11:38:02.238Z,94.68
2023-04-12T11:39:02.218Z,95.35
2023-04-12T11:40:02.276Z,95.35
2023-04-12T11:41:02.195Z,94.94
2023-04-12T11:42:02.203Z,95.29
2023-04-12T11:43:02.199Z,95.39
2023-04-12T11:44:02.173Z,95.70
2023-04-12T11:45:08.309Z,95.70
2023-04-12T11:46:03.129Z,96.11
2023-04-12T11:47:02.148Z,96.77
2023-04-12T11:48:02.195Z,96.36
2023-04-12T11:49:02.160Z,96.51
2023-04-12T11:50:02.074Z,97.06
2023-04-12T11:51:10.811Z,97.57
2023-04-12T11:52:03.051Z,97.21
2023-04-12T11:53:02.043Z,96.95
2023-04-12T11:54:02.016Z,96.17
2023-04-12T11:55:02.053Z,96.28
2023-04-12T11:56:02.036Z,96.07
2023-04-12T11:57:04.249Z,95.87
2023-04-12T11:58:01.970Z,95.15
2023-04-12T11:59:01.954Z,94.33
2023-04-12T12:00:01.952Z,92.53
2023-04-12T12:01:01.925Z,92.32
2023-04-12T12:02:08.289Z,93.04
2023-04-12T12:03:07.186Z,91.50
2023-04-12T12:04:02.286Z,91.40
2023-04-12T12:05:02.085Z,91.24
2023-04-12T12:06:02.017Z,91.65
2023-04-12T12:07:02.005Z,92.36
2023-04-12T12:08:01.849Z,92.57
2023-04-12T12:09:01.842Z,92.27
2023-04-12T12:10:01.805Z,92.61
2023-04-12T12:11:07.908Z,93.44
2023-04-12T12:12:02.779Z,93.02
2023-04-12T12:13:01.804Z,93.44
2023-04-12T12:14:01.938Z,94.67
2023-04-12T12:15:01.782Z,94.15
2023-04-12T12:16:01.769Z,94.46
2023-04-12T12:17:01.725Z,94.05
2023-04-12T12:18:01.790Z,94.36
2023-04-12T12:19:01.709Z,94.36
2023-04-12T12:20:01.674Z,94.15
2023-04-12T12:21:01.670Z,93.90
2023-04-12T12:22:01.649Z,93.49
2023-04-12T12:23:01.659Z,93.55
2023-04-12T12:24:01.783Z,93.76
2023-04-12T12:25:01.624Z,93.00
2023-04-12T12:26:16.783Z,92.90
2023-04-12T12:27:02.588Z,92.69
2023-04-12T12:28:01.607Z,92.28
2023-04-12T12:29:01.562Z,91.46
2023-04-12T12:30:01.694Z,91.26
2023-04-12T12:31:01.583Z,91.22
2023-04-12T12:32:01.543Z,90.45
2023-04-12T12:33:01.605Z,90.45
2023-04-12T12:34:03.035Z,89.80
2023-04-12T12:35:01.555Z,88.47
2023-04-12T12:36:01.507Z,87.96
2023-04-12T12:37:01.480Z,88.12
2023-04-12T12:38:01.467Z,89.15
2023-04-12T12:39:01.491Z,89.61
2023-04-12T12:40:01.444Z,88.08
2023-04-12T12:41:01.413Z,86.51
2023-04-12T12:42:01.398Z,85.55
2023-04-12T12:43:01.396Z,84.49
2023-04-12T12:44:01.381Z,85.49
2023-04-12T12:45:01.358Z,84.33
2023-04-12T12:46:01.369Z,81.58
2023-04-12T12:47:13.102Z,80.22
2023-04-12T12:48:02.877Z,80.38
2023-04-12T12:49:01.308Z,77.91
2023-04-12T12:50:01.364Z,77.91
2023-04-12T12:51:01.285Z,79.33
2023-04-12T12:52:01.273Z,78.15
2023-04-12T12:53:01.300Z,77.53
2023-04-12T12:54:01.291Z,78.35
2023-04-12T12:55:01.234Z,78.35
2023-04-12T12:56:01.213Z,78.85
2023-04-12T12:57:01.214Z,77.22
2023-04-12T12:58:08.050Z,76.40
2023-04-12T12:59:02.185Z,72.28
2023-04-12T13:00:01.168Z,71.40
2023-04-12T13:01:01.158Z,69.81
2023-04-12T13:02:01.209Z,69.34
2023-04-12T13:03:01.779Z,65.78
2023-04-12T13:04:01.562Z,65.61
2023-04-12T13:05:01.202Z,66.01
2023-04-12T13:06:01.104Z,66.48
2023-04-12T13:07:01.102Z,66.52
2023-04-12T13:08:01.082Z,66.96
2023-04-12T13:09:01.233Z,66.11
2023-04-12T13:10:01.027Z,65.13
2023-04-12T13:11:01.037Z,64.29
2023-04-12T13:12:01.007Z,63.58
2023-04-12T13:13:01.004Z,65.64
2023-04-12T13:14:00.989Z,62.21
2023-04-12T13:15:13.377Z,61.65
2023-04-12T13:16:02.092Z,62.22
2023-04-12T13:17:00.942Z,62.73
2023-04-12T13:18:00.979Z,62.76
2023-04-12T13:19:00.918Z,63.49
2023-04-12T13:20:00.914Z,61.91
2023-04-12T13:21:00.888Z,62.54
2023-04-12T13:22:00.899Z,64.32
2023-04-12T13:23:00.878Z,63.37
2023-04-12T13:24:00.861Z,65.02
2023-04-12T13:25:00.831Z,63.40
2023-04-12T13:26:00.824Z,63.67
2023-04-12T13:27:00.817Z,64.02
2023-04-12T13:28:00.818Z,63.18
2023-04-12T13:29:01.181Z,62.74
2023-04-12T13:30:00.772Z,62.21
2023-04-12T13:31:00.761Z,63.52
2023-04-12T13:32:00.807Z,62.87
2023-04-12T13:33:00.858Z,63.99
2023-04-12T13:34:00.724Z,63.45
2023-04-12T13:35:00.708Z,61.92
2023-04-12T13:36:00.706Z,57.93
2023-04-12T13:37:00.686Z,59.59
2023-04-12T13:38:00.683Z,56.82
2023-04-12T13:39:00.913Z,55.31
2023-04-12T13:40:00.646Z,54.75
2023-04-12T13:41:00.625Z,55.96
2023-04-12T13:42:00.618Z,54.53
2023-04-12T13:43:00.615Z,53.52
2023-04-12T13:44:00.595Z,54.91
2023-04-12T13:45:00.577Z,55.11
2023-04-12T13:46:00.589Z,54.50
2023-04-12T13:47:00.563Z,53.88
2023-04-12T13:48:00.743Z,51.74
2023-04-12T13:49:00.712Z,51.54
2023-04-12T13:50:00.525Z,51.66
2023-04-12T13:51:00.508Z,49.77
2023-04-12T13:52:00.504Z,50.38
2023-04-12T13:53:00.516Z,50.18
2023-04-12T13:54:00.476Z,49.80
2023-04-12T13:55:00.452Z,50.91
2023-04-12T13:56:00.453Z,51.59
2023-04-12T13:57:00.425Z,50.86
2023-04-12T13:58:00.429Z,50.76
2023-04-12T13:59:00.395Z,50.56
2023-04-12T14:00:00.405Z,50.98
2023-04-12T14:01:00.485Z,51.01
2023-04-12T14:02:00.407Z,50.78
2023-04-12T14:03:00.508Z,51.51
2023-04-12T14:04:00.354Z,51.66
2023-04-12T14:05:00.523Z,51.76
2023-04-12T14:06:00.320Z,52.64
2023-04-12T14:07:00.297Z,52.26
2023-04-12T14:08:00.304Z,52.64
2023-04-12T14:09:00.367Z,53.09
2023-04-12T14:10:00.265Z,50.93
2023-04-12T14:11:00.246Z,50.63
2023-04-12T14:12:00.260Z,51.06
2023-04-12T14:13:00.236Z,50.63
2023-04-12T14:14:00.212Z,50.60
2023-04-12T14:15:00.215Z,53.14
2023-04-12T14:16:00.189Z,55.67
2023-04-12T14:17:00.210Z,57.07
2023-04-12T14:18:00.336Z,58.61
2023-04-12T14:19:00.280Z,59.34
2023-04-12T14:20:00.149Z,60.65
2023-04-12T14:21:00.117Z,63.14
2023-04-12T14:22:00.151Z,63.34
2023-04-12T14:23:00.136Z,64.36
2023-04-12T14:24:00.138Z,65.07
2023-04-12T14:25:00.104Z,64.06
2023-04-12T14:26:00.074Z,65.00
2023-04-12T14:27:00.036Z,66.12
2023-04-12T14:28:00.057Z,64.79
2023-04-12T14:29:00.212Z,65.00
2023-04-12T14:30:00.013Z,65.10
2023-04-12T14:31:00.015Z,65.13
2023-04-12T14:31:59.982Z,65.74
2023-04-12T14:33:00.028Z,66.46
2023-04-12T14:34:00.187Z,67.30
2023-04-12T14:34:59.937Z,67.30
2023-04-12T14:35:59.927Z,68.44
2023-04-12T14:36:59.920Z,69.02
2023-04-12T14:37:59.935Z,70.31
2023-04-12T14:38:59.982Z,72.41
2023-04-12T14:39:59.884Z,73.47
2023-04-12T14:40:59.886Z,74.22
2023-04-12T14:41:59.887Z,75.48
2023-04-12T14:42:59.846Z,75.68
2023-04-12T14:43:59.946Z,76.78
2023-04-12T14:44:59.821Z,77.80
2023-04-12T14:45:59.801Z,78.61
2023-04-12T14:46:59.783Z,78.75
2023-04-12T14:47:59.797Z,79.37
2023-04-12T14:48:59.856Z,80.29
2023-04-12T14:49:59.746Z,80.49
2023-04-12T14:50:59.745Z,80.94
2023-04-12T14:51:59.744Z,80.94
2023-04-12T14:52:59.723Z,81.15
2023-04-12T14:53:59.962Z,80.83
2023-04-12T14:54:59.677Z,81.04
2023-04-12T14:55:59.658Z,81.45
2023-04-12T14:56:59.648Z,82.27
2023-04-12T14:57:59.650Z,83.70
2023-04-12T14:59:06.809Z,84.46
2023-04-12T14:59:59.632Z,85.79
2023-04-12T15:00:59.616Z,86.10
2023-04-12T15:01:59.766Z,86.96
2023-04-12T15:02:59.812Z,87.98
2023-04-12T15:03:59.792Z,88.33
2023-04-12T15:04:59.633Z,90.11
2023-04-12T15:05:59.540Z,91.14
2023-04-12T15:06:59.525Z,91.69
2023-04-12T15:07:59.517Z,92.61
2023-04-12T15:08:59.499Z,93.74
2023-04-12T15:09:59.475Z,93.85
2023-04-12T15:10:59.482Z,93.48
2023-04-12T15:11:59.453Z,94.51
2023-04-12T15:12:59.456Z,95.32
2023-04-12T15:13:59.796Z,95.98
2023-04-12T15:14:59.419Z,96.50
2023-04-12T15:15:59.441Z,97.22
2023-04-12T15:16:59.404Z,97.73
2023-04-12T15:17:59.494Z,98.08
2023-04-12T15:19:03.612Z,98.39
2023-04-12T15:20:00.399Z,99.01
2023-04-12T15:20:59.403Z,98.70
2023-04-12T15:21:59.326Z,98.91
2023-04-12T15:22:59.325Z,99.32
2023-04-12T15:23:59.428Z,99.63
2023-04-12T15:24:59.300Z,99.83
2023-04-12T15:25:59.293Z,99.99
2023-04-12T15:26:59.273Z,99.99
2023-04-12T15:27:59.269Z,99.99
2023-04-12T15:28:59.238Z,99.99
2023-04-12T15:29:59.286Z,99.99
2023-04-12T15:30:59.217Z,99.99
2023-04-12T15:31:59.274Z,99.99
2023-04-12T15:32:59.295Z,99.99
2023-04-12T15:33:59.334Z,99.99
2023-04-12T15:34:59.161Z,99.99
2023-04-12T15:35:59.153Z,99.99
2023-04-12T15:36:59.257Z,99.99
2023-04-12T15:37:59.134Z,99.99
2023-04-12T15:38:59.109Z,99.99
2023-04-12T15:39:59.211Z,99.99
2023-04-12T15:40:59.113Z,99.99
2023-04-12T15:41:59.075Z,99.99
2023-04-12T15:42:59.074Z,99.99
2023-04-12T15:43:59.183Z,99.37
2023-04-12T15:44:59.064Z,99.26
2023-04-12T15:45:59.073Z,99.73
2023-04-12T15:47:10.446Z,99.73
2023-04-12T15:48:00.064Z,99.52
2023-04-12T15:48:58.981Z,99.52
2023-04-12T15:49:58.986Z,99.42
2023-04-12T15:50:58.961Z,99.42
2023-04-12T15:51:58.953Z,99.52
2023-04-12T15:52:58.949Z,98.60
2023-04-12T15:53:59.145Z,98.08
2023-04-12T15:54:58.927Z,98.29
2023-04-12T15:55:58.892Z,98.29
2023-04-12T15:56:58.890Z,98.55
2023-04-12T15:57:58.877Z,98.45
2023-04-12T15:58:59.035Z,98.35
2023-04-12T15:59:58.896Z,98.35
2023-04-12T16:00:58.840Z,98.55
2023-04-12T16:01:59.015Z,98.55
2023-04-12T16:02:58.959Z,98.45
2023-04-12T16:03:58.919Z,97.83
2023-04-12T16:04:58.840Z,97.83
2023-04-12T16:05:58.772Z,98.14
2023-04-12T16:06:58.756Z,98.25
2023-04-12T16:07:58.751Z,97.49
2023-04-12T16:08:59.025Z,96.47
2023-04-12T16:09:58.754Z,96.26
2023-04-12T16:10:58.704Z,95.28
2023-04-12T16:11:58.686Z,96.00
2023-04-12T16:12:58.682Z,95.79
2023-04-12T16:13:58.674Z,95.39
2023-04-12T16:14:58.653Z,95.90
2023-04-12T16:15:58.641Z,96.41
2023-04-12T16:16:58.620Z,96.62
2023-04-12T16:17:58.679Z,96.51
2023-04-12T16:18:58.864Z,96.10
2023-04-12T16:19:58.609Z,96.10
2023-04-12T16:20:58.566Z,96.16
2023-04-12T16:21:58.569Z,95.50
2023-04-12T16:22:58.564Z,94.33
2023-04-12T16:23:58.653Z,93.67
2023-04-12T16:24:58.527Z,91.38
2023-04-12T16:25:58.514Z,89.94
2023-04-12T16:26:58.494Z,90.70
2023-04-12T16:27:58.486Z,91.52
2023-04-12T16:28:58.664Z,91.46
2023-04-12T16:29:58.465Z,92.18
2023-04-12T16:30:58.485Z,93.00
2023-04-12T16:31:58.498Z,93.25
2023-04-12T16:32:58.448Z,92.69
2023-04-12T16:33:58.403Z,92.50
2023-04-12T16:34:58.403Z,88.90
2023-04-12T16:35:58.383Z,86.83
2023-04-12T16:36:58.372Z,84.78
2023-04-12T16:37:58.361Z,84.19
2023-04-12T16:38:58.452Z,81.26
2023-04-12T16:39:58.329Z,79.84
2023-04-12T16:40:58.316Z,79.43
2023-04-12T16:41:58.299Z,78.05
2023-04-12T16:42:58.308Z,77.71
2023-04-12T16:43:58.271Z,77.95
2023-04-12T16:44:58.266Z,79.00
2023-04-12T16:45:58.235Z,78.70
2023-04-12T16:46:58.299Z,79.66
2023-04-12T16:47:58.310Z,80.65
2023-04-12T16:48:58.280Z,80.14
2023-04-12T16:49:58.188Z,78.68
2023-04-12T16:50:58.214Z,80.15
2023-04-12T16:51:58.175Z,80.62
2023-04-12T16:52:58.173Z,79.77
2023-04-12T16:53:58.308Z,78.64
2023-04-12T16:54:58.156Z,80.21
2023-04-12T16:55:58.130Z,80.56
2023-04-12T16:56:58.123Z,81.01
2023-04-12T16:57:58.138Z,82.41
2023-04-12T16:58:58.078Z,83.17
2023-04-12T16:59:58.086Z,84.09
2023-04-12T17:00:58.058Z,84.80
2023-04-12T17:01:58.091Z,84.53
2023-04-12T17:02:58.103Z,85.15
2023-04-12T17:03:58.284Z,85.87
2023-04-12T17:04:58.016Z,85.66
2023-04-12T17:05:57.986Z,85.77
2023-04-12T17:06:57.976Z,86.32